This is the latest recevied weather packets stored in our database for station/object SQ8SW-4. If no packets are shown the sender has not sent any weather packets the latest 10 day(s).
| Time | Temp. | Humidity | Pressure | Rain* | Wind** | Luminosity | Snow |
|---|---|---|---|---|---|---|---|
| 1777617500 | 10° C | 43% | 999 hPa | - | - | - | - |
| 1777616598 | 10° C | 43% | 999 hPa | - | - | - | - |
| 1777615695 | 10° C | 42% | 999 hPa | - | - | - | - |
| 1777614793 | 10° C | 43% | 999 hPa | - | - | - | - |
| 1777613891 | 9.44° C | 48% | 999 hPa | - | - | - | - |
| 1777612989 | 8.89° C | 49% | 999 hPa | - | - | - | - |
| 1777612087 | 8.33° C | 48% | 999 hPa | - | - | - | - |
| 1777611184 | 7.22° C | 52% | 999 hPa | - | - | - | - |
| 1777610282 | 6.11° C | 56% | 999 hPa | - | - | - | - |
| 1777609380 | 6.11° C | 60% | 999 hPa | - | - | - | - |
| 1777608478 | 5.56° C | 60% | 999 hPa | - | - | - | - |
| 1777607576 | 5.56° C | 61% | 999 hPa | - | - | - | - |
| 1777606673 | 5.56° C | 64% | 999 hPa | - | - | - | - |
| 1777605771 | 5.56° C | 63% | 999 hPa | - | - | - | - |
| 1777604869 | 5.56° C | 62% | 999 hPa | - | - | - | - |
| 1777603967 | 5.56° C | 62% | 999 hPa | - | - | - | - |
| 1777603064 | 5.56° C | 61% | 999 hPa | - | - | - | - |
| 1777602162 | 5.56° C | 63% | 999 hPa | - | - | - | - |
| 1777601260 | 5.56° C | 61% | 999 hPa | - | - | - | - |
| 1777600358 | 5.56° C | 61% | 999 hPa | - | - | - | - |
| 1777584118 | 7.78° C | 58% | 999 hPa | - | - | - | - |
| 1777583216 | 7.78° C | 54% | 998 hPa | - | - | - | - |
| 1777579607 | 8.33° C | 49% | 998 hPa | - | - | - | - |
| 1777577802 | 8.33° C | 49% | 998 hPa | - | - | - | - |
| 1777572389 | 11.67° C | 38% | 998 hPa | - | - | - | - |
* Rain since midnight (hover to see other rain measurements)
** Current wind speed in m/s (hover to see current wind gust speed)